createdAt,value
2018-08-09T00:00:06.938Z,0.00
2018-08-09T00:01:06.868Z,0.00
2018-08-09T00:02:06.797Z,0.00
2018-08-09T00:03:06.727Z,0.00
2018-08-09T00:04:06.655Z,0.00
2018-08-09T00:05:06.585Z,0.00
2018-08-09T00:06:06.512Z,0.00
2018-08-09T00:07:06.440Z,0.00
2018-08-09T00:08:06.371Z,0.00
2018-08-09T00:09:06.298Z,0.00
2018-08-09T00:10:06.227Z,0.00
2018-08-09T00:11:06.159Z,0.00
2018-08-09T00:12:06.085Z,0.00
2018-08-09T00:13:06.014Z,0.00
2018-08-09T00:14:05.944Z,0.00
2018-08-09T00:15:05.871Z,0.00
2018-08-09T00:16:05.799Z,0.00
2018-08-09T00:17:05.729Z,0.00
2018-08-09T00:18:05.658Z,0.00
2018-08-09T00:19:05.585Z,0.00
2018-08-09T00:20:05.513Z,0.00
2018-08-09T00:21:05.441Z,0.00
2018-08-09T00:22:05.369Z,0.00
2018-08-09T00:23:05.299Z,0.00
2018-08-09T00:24:05.227Z,0.00
2018-08-09T00:25:05.155Z,0.00
2018-08-09T00:26:05.083Z,0.00
2018-08-09T00:27:05.011Z,0.00
2018-08-09T00:28:04.939Z,0.00
2018-08-09T00:29:04.868Z,0.00
2018-08-09T00:30:04.799Z,0.00
2018-08-09T00:31:04.725Z,0.00
2018-08-09T00:32:04.655Z,0.00
2018-08-09T00:33:04.584Z,0.00
2018-08-09T00:34:04.509Z,0.00
2018-08-09T00:35:04.437Z,0.00
2018-08-09T00:36:04.368Z,0.00
2018-08-09T00:37:04.294Z,0.00
2018-08-09T00:38:04.221Z,0.00
2018-08-09T00:39:04.149Z,0.00
2018-08-09T00:40:04.079Z,0.00
2018-08-09T00:41:04.007Z,0.00
2018-08-09T00:42:03.934Z,0.00
2018-08-09T00:43:03.862Z,0.00
2018-08-09T00:44:03.789Z,0.00
2018-08-09T00:45:03.718Z,0.00
2018-08-09T00:46:03.645Z,0.00
2018-08-09T00:47:03.573Z,0.00
2018-08-09T00:48:03.503Z,0.00
2018-08-09T00:49:03.430Z,0.00
2018-08-09T00:50:03.357Z,0.00
2018-08-09T00:51:03.285Z,0.00
2018-08-09T00:52:03.213Z,0.00
2018-08-09T00:53:03.143Z,0.00
2018-08-09T00:54:03.069Z,0.00
2018-08-09T00:55:02.999Z,0.00
2018-08-09T00:56:02.929Z,0.00
2018-08-09T00:57:02.853Z,0.00
2018-08-09T00:58:02.780Z,0.00
2018-08-09T00:59:02.709Z,0.00
2018-08-09T01:00:02.644Z,0.00
2018-08-09T01:01:02.566Z,0.00
2018-08-09T01:02:02.493Z,0.00
2018-08-09T01:03:02.419Z,0.00
2018-08-09T01:04:02.347Z,0.00
2018-08-09T01:05:02.275Z,0.00
2018-08-09T01:06:02.204Z,0.00
2018-08-09T01:07:02.133Z,0.00
2018-08-09T01:08:02.059Z,0.00
2018-08-09T01:09:01.986Z,0.00
2018-08-09T01:10:01.915Z,0.00
2018-08-09T01:11:01.843Z,0.00
2018-08-09T01:12:01.769Z,0.00
2018-08-09T01:13:01.698Z,0.00
2018-08-09T01:14:01.626Z,0.00
2018-08-09T01:15:01.554Z,0.00
2018-08-09T01:16:01.481Z,0.00
2018-08-09T01:17:01.410Z,0.00
2018-08-09T01:18:01.337Z,0.00
2018-08-09T01:19:01.267Z,0.00
2018-08-09T01:20:01.193Z,0.00
2018-08-09T01:21:01.121Z,0.00
2018-08-09T01:22:01.048Z,0.00
2018-08-09T01:23:00.976Z,0.00
2018-08-09T01:24:00.938Z,0.00
2018-08-09T01:25:00.831Z,0.00
2018-08-09T01:26:00.759Z,0.00
2018-08-09T01:27:00.687Z,0.00
2018-08-09T01:28:00.615Z,0.00
2018-08-09T01:29:00.543Z,0.00
2018-08-09T01:30:00.470Z,0.00
2018-08-09T01:31:00.399Z,0.00
2018-08-09T01:32:00.326Z,0.00
2018-08-09T01:33:00.325Z,0.00
2018-08-09T01:34:00.180Z,0.00
2018-08-09T01:35:00.108Z,0.00
2018-08-09T01:36:00.037Z,0.00
2018-08-09T01:36:59.966Z,0.00
2018-08-09T01:37:59.891Z,0.00
2018-08-09T01:38:59.819Z,0.00
2018-08-09T01:39:59.748Z,0.00
2018-08-09T01:40:59.675Z,0.00
2018-08-09T01:41:59.602Z,0.00
2018-08-09T01:42:59.530Z,0.00
2018-08-09T01:43:59.459Z,0.00
2018-08-09T01:44:59.386Z,0.00
2018-08-09T01:45:59.313Z,0.00
2018-08-09T01:46:59.241Z,0.00
2018-08-09T01:47:59.171Z,0.00
2018-08-09T01:48:59.099Z,0.00
2018-08-09T01:49:59.025Z,0.00
2018-08-09T01:50:58.953Z,0.00
2018-08-09T01:51:58.882Z,0.00
2018-08-09T01:52:58.810Z,0.00
2018-08-09T01:53:58.738Z,0.00
2018-08-09T01:54:58.665Z,0.00
2018-08-09T01:55:58.594Z,0.00
2018-08-09T01:56:58.522Z,0.00
2018-08-09T01:57:58.450Z,0.00
2018-08-09T01:58:58.377Z,0.00
2018-08-09T01:59:58.304Z,0.00
2018-08-09T02:00:58.234Z,0.00
2018-08-09T02:01:58.161Z,0.00
2018-08-09T02:02:58.089Z,0.00
2018-08-09T02:03:58.018Z,0.00
2018-08-09T02:04:57.969Z,0.00
2018-08-09T02:05:57.873Z,0.00
2018-08-09T02:06:57.801Z,0.00
2018-08-09T02:07:57.730Z,0.00
2018-08-09T02:08:57.658Z,0.00
2018-08-09T02:09:57.584Z,0.00
2018-08-09T02:10:57.516Z,0.00
2018-08-09T02:11:57.442Z,0.00
2018-08-09T02:12:57.376Z,0.00
2018-08-09T02:13:57.297Z,0.00
2018-08-09T02:14:57.224Z,0.00
2018-08-09T02:15:57.153Z,0.00
2018-08-09T02:16:57.082Z,0.00
2018-08-09T02:17:57.006Z,0.00
2018-08-09T02:18:56.940Z,0.00
2018-08-09T02:19:56.864Z,0.00
2018-08-09T02:20:56.792Z,0.00
2018-08-09T02:21:56.720Z,0.00
2018-08-09T02:22:56.648Z,0.00
2018-08-09T02:23:56.576Z,0.00
2018-08-09T02:24:56.504Z,0.00
2018-08-09T02:25:56.430Z,0.00
2018-08-09T02:26:56.359Z,0.00
2018-08-09T02:27:56.288Z,0.00
2018-08-09T02:28:56.215Z,0.00
2018-08-09T02:29:56.142Z,0.00
2018-08-09T02:30:56.071Z,0.00
2018-08-09T02:31:56.000Z,0.00
2018-08-09T02:32:55.927Z,0.00
2018-08-09T02:33:55.854Z,0.00
2018-08-09T02:34:55.784Z,0.00
2018-08-09T02:35:55.712Z,0.00
2018-08-09T02:36:55.653Z,0.00
2018-08-09T02:37:55.564Z,0.00
2018-08-09T02:38:55.494Z,0.00
2018-08-09T02:39:55.422Z,0.00
2018-08-09T02:40:55.348Z,0.00
2018-08-09T02:41:55.275Z,0.00
2018-08-09T02:42:55.203Z,0.00
2018-08-09T02:43:55.131Z,0.00
2018-08-09T02:44:55.059Z,0.00
2018-08-09T02:45:54.986Z,0.00
2018-08-09T02:46:54.966Z,0.00
2018-08-09T02:47:54.844Z,0.00
2018-08-09T02:48:54.772Z,0.00
2018-08-09T02:49:54.697Z,0.00
2018-08-09T02:50:54.625Z,0.00
2018-08-09T02:51:54.552Z,0.00
2018-08-09T02:52:54.482Z,0.00
2018-08-09T02:53:54.409Z,0.00
2018-08-09T02:54:54.336Z,0.00
2018-08-09T02:55:54.264Z,0.00
2018-08-09T02:56:54.191Z,0.00
2018-08-09T02:57:54.119Z,0.00
2018-08-09T02:58:54.046Z,0.00
2018-08-09T02:59:53.976Z,0.00
2018-08-09T03:00:53.903Z,0.00
2018-08-09T03:01:53.831Z,0.00
2018-08-09T03:02:53.758Z,0.00
2018-08-09T03:03:53.686Z,0.00
2018-08-09T03:04:53.613Z,0.00
2018-08-09T03:05:53.540Z,0.00
2018-08-09T03:06:53.467Z,0.00
2018-08-09T03:07:53.397Z,0.00
2018-08-09T03:08:53.322Z,0.00
2018-08-09T03:09:53.250Z,0.00
2018-08-09T03:10:53.181Z,0.00
2018-08-09T03:11:53.107Z,0.00
2018-08-09T03:12:53.034Z,0.00
2018-08-09T03:13:52.962Z,0.00
2018-08-09T03:14:52.890Z,0.00
2018-08-09T03:15:52.817Z,0.00
2018-08-09T03:16:52.744Z,0.00
2018-08-09T03:17:52.673Z,0.00
2018-08-09T03:18:52.599Z,0.00
2018-08-09T03:19:52.528Z,0.00
2018-08-09T03:20:52.456Z,0.00
2018-08-09T03:21:52.384Z,0.00
2018-08-09T03:22:52.309Z,0.00
2018-08-09T03:23:52.238Z,0.00
2018-08-09T03:24:52.166Z,0.00
2018-08-09T03:25:52.093Z,0.00
2018-08-09T03:26:52.021Z,0.00
2018-08-09T03:27:51.949Z,0.00
2018-08-09T03:28:51.876Z,0.00
2018-08-09T03:29:51.803Z,0.00
2018-08-09T03:30:51.732Z,0.00
2018-08-09T03:31:51.660Z,0.00
2018-08-09T03:32:51.589Z,0.00
2018-08-09T03:33:51.514Z,0.00
2018-08-09T03:34:51.442Z,0.00
2018-08-09T03:35:51.370Z,4.00
2018-08-09T03:36:51.297Z,4.00
2018-08-09T03:37:51.224Z,0.00
2018-08-09T03:38:51.153Z,0.00
2018-08-09T03:39:51.080Z,4.00
2018-08-09T03:40:51.008Z,4.00
2018-08-09T03:41:50.936Z,4.00
2018-08-09T03:42:50.866Z,8.00
2018-08-09T03:43:50.791Z,8.00
2018-08-09T03:44:51.069Z,4.00
2018-08-09T03:45:50.646Z,8.00
2018-08-09T03:46:50.574Z,8.00
2018-08-09T03:47:50.501Z,12.00
2018-08-09T03:48:50.430Z,12.00
2018-08-09T03:49:50.356Z,16.00
2018-08-09T03:50:50.283Z,16.00
2018-08-09T03:51:50.212Z,20.00
2018-08-09T03:52:50.139Z,24.00
2018-08-09T03:53:50.067Z,28.00
2018-08-09T03:54:49.995Z,32.00
2018-08-09T03:55:49.923Z,36.00
2018-08-09T03:56:49.851Z,44.00
2018-08-09T03:57:49.777Z,44.00
2018-08-09T03:58:49.704Z,52.00
2018-08-09T03:59:49.632Z,60.00
2018-08-09T04:00:49.559Z,64.00
2018-08-09T04:01:49.488Z,72.00
2018-08-09T04:02:49.413Z,80.00
2018-08-09T04:03:49.342Z,88.00
2018-08-09T04:04:49.269Z,100.00
2018-08-09T04:05:49.196Z,108.00
2018-08-09T04:06:49.124Z,120.00
2018-08-09T04:07:49.053Z,128.00
2018-08-09T04:08:48.980Z,140.00
2018-08-09T04:09:48.906Z,152.00
2018-08-09T04:10:48.835Z,160.00
2018-08-09T04:11:48.813Z,176.00
2018-08-09T04:12:48.691Z,184.00
2018-08-09T04:13:48.619Z,196.00
2018-08-09T04:14:48.543Z,204.00
2018-08-09T04:15:48.472Z,224.00
2018-08-09T04:16:48.400Z,244.00
2018-08-09T04:17:48.326Z,260.00
2018-08-09T04:18:48.253Z,276.00
2018-08-09T04:19:48.186Z,288.00
2018-08-09T04:20:48.109Z,308.00
2018-08-09T04:21:48.036Z,328.00
2018-08-09T04:22:47.963Z,348.00
2018-08-09T04:23:47.897Z,372.00
2018-08-09T04:24:47.819Z,392.00
2018-08-09T04:25:47.750Z,412.00
2018-08-09T04:26:47.679Z,420.00
2018-08-09T04:27:47.602Z,432.00
2018-08-09T04:28:47.528Z,448.00
2018-08-09T04:29:47.456Z,460.00
2018-08-09T04:30:47.384Z,468.00
2018-08-09T04:31:47.312Z,472.00
2018-08-09T04:32:47.239Z,472.00
2018-08-09T04:33:47.168Z,472.00
2018-08-09T04:34:47.095Z,476.00
2018-08-09T04:35:47.022Z,484.00
2018-08-09T04:36:46.950Z,496.00
2018-08-09T04:37:46.878Z,516.00
2018-08-09T04:38:46.806Z,532.00
2018-08-09T04:39:46.734Z,552.00
2018-08-09T04:40:46.661Z,580.00
2018-08-09T04:41:46.589Z,608.00
2018-08-09T04:42:46.517Z,624.00
2018-08-09T04:43:46.445Z,640.00
2018-08-09T04:44:46.374Z,648.00
2018-08-09T04:45:46.301Z,644.00
2018-08-09T04:46:46.228Z,636.00
2018-08-09T04:47:46.158Z,624.00
2018-08-09T04:48:46.083Z,620.00
2018-08-09T04:49:46.010Z,624.00
2018-08-09T04:50:45.939Z,636.00
2018-08-09T04:51:45.866Z,656.00
2018-08-09T04:52:45.794Z,684.00
2018-08-09T04:53:45.721Z,720.00
2018-08-09T04:54:45.649Z,756.00
2018-08-09T04:55:45.576Z,796.00
2018-08-09T04:56:45.505Z,824.00
2018-08-09T04:57:45.431Z,840.00
2018-08-09T04:58:45.360Z,844.00
2018-08-09T04:59:45.288Z,836.00
2018-08-09T05:00:45.216Z,820.00
2018-08-09T05:01:45.144Z,808.00
2018-08-09T05:02:45.072Z,808.00
2018-08-09T05:03:45.000Z,824.00
2018-08-09T05:04:44.928Z,840.00
2018-08-09T05:05:44.854Z,860.00
2018-08-09T05:06:44.783Z,892.00
2018-08-09T05:07:44.711Z,920.00
2018-08-09T05:08:44.638Z,948.00
2018-08-09T05:09:44.566Z,984.00
2018-08-09T05:10:44.498Z,1044.00
2018-08-09T05:11:44.423Z,1128.00
2018-08-09T05:12:44.350Z,1220.00
2018-08-09T05:13:44.278Z,1276.00
2018-08-09T05:14:44.208Z,1288.00
2018-08-09T05:15:44.134Z,1272.00
2018-08-09T05:16:44.063Z,1248.00
2018-08-09T05:17:43.993Z,1220.00
2018-08-09T05:18:43.919Z,1212.00
2018-08-09T05:19:43.848Z,1252.00
2018-08-09T05:20:43.774Z,1308.00
2018-08-09T05:21:43.701Z,1316.00
2018-08-09T05:22:43.630Z,1276.00
2018-08-09T05:23:43.559Z,1244.00
2018-08-09T05:24:43.486Z,1256.00
2018-08-09T05:25:43.415Z,1272.00
2018-08-09T05:26:43.344Z,1264.00
2018-08-09T05:27:43.271Z,1268.00
2018-08-09T05:28:43.200Z,1304.00
2018-08-09T05:29:43.128Z,1424.00
2018-08-09T05:30:43.055Z,1584.00
2018-08-09T05:31:42.986Z,1696.00
2018-08-09T05:32:42.913Z,1692.00
2018-08-09T05:33:42.839Z,1632.00
2018-08-09T05:34:42.769Z,1596.00
2018-08-09T05:35:42.699Z,1596.00
2018-08-09T05:36:42.626Z,1604.00
2018-08-09T05:37:42.555Z,1632.00
2018-08-09T05:38:42.481Z,1620.00
2018-08-09T05:39:42.409Z,1560.00
2018-08-09T05:40:42.337Z,1540.00
2018-08-09T05:41:42.265Z,1552.00
2018-08-09T05:42:42.196Z,1600.00
2018-08-09T05:43:42.124Z,1644.00
2018-08-09T05:44:42.053Z,1656.00
2018-08-09T05:45:41.982Z,1588.00
2018-08-09T05:46:41.908Z,1428.00
2018-08-09T05:47:41.836Z,1212.00
2018-08-09T05:48:41.765Z,1052.00
2018-08-09T05:49:41.694Z,960.00
2018-08-09T05:50:41.623Z,948.00
2018-08-09T05:51:41.554Z,984.00
2018-08-09T05:52:41.523Z,1052.00
2018-08-09T05:53:41.408Z,1148.00
2018-08-09T05:54:41.335Z,1272.00
2018-08-09T05:55:41.264Z,1384.00
2018-08-09T05:56:41.192Z,1472.00
2018-08-09T05:57:41.120Z,1520.00
2018-08-09T05:58:41.049Z,1576.00
2018-08-09T05:59:40.978Z,1612.00
2018-08-09T06:00:40.909Z,1628.00
2018-08-09T06:01:40.841Z,1692.00
2018-08-09T06:02:40.765Z,1792.00
2018-08-09T06:03:40.693Z,1856.00
2018-08-09T06:04:40.622Z,1912.00
2018-08-09T06:05:40.588Z,1944.00
2018-08-09T06:06:40.479Z,1960.00
2018-08-09T06:07:40.409Z,2008.00
2018-08-09T06:08:40.338Z,2052.00
2018-08-09T06:09:40.264Z,2088.00
2018-08-09T06:10:40.199Z,2172.00
2018-08-09T06:11:40.126Z,2296.00
2018-08-09T06:12:40.055Z,2460.00
2018-08-09T06:13:39.980Z,2628.00
2018-08-09T06:14:39.909Z,2732.00
2018-08-09T06:15:39.838Z,2700.00
2018-08-09T06:16:39.768Z,2620.00
2018-08-09T06:17:39.695Z,2620.00
2018-08-09T06:18:39.626Z,2700.00
2018-08-09T06:19:39.561Z,2788.00
2018-08-09T06:20:39.485Z,2752.00
2018-08-09T06:21:39.411Z,2704.00
2018-08-09T06:22:39.340Z,2760.00
2018-08-09T06:23:39.271Z,2892.00
2018-08-09T06:24:39.199Z,3132.00
2018-08-09T06:25:39.127Z,3384.00
2018-08-09T06:26:39.063Z,3480.00
2018-08-09T06:27:38.986Z,3452.00
2018-08-09T06:28:38.926Z,3388.00
2018-08-09T06:29:38.855Z,3364.00
2018-08-09T06:30:38.773Z,3204.00
2018-08-09T06:31:38.705Z,3108.00
2018-08-09T06:32:38.631Z,2924.00
2018-08-09T06:33:38.562Z,2608.00
2018-08-09T06:34:38.490Z,2280.00
2018-08-09T06:35:38.421Z,2128.00
2018-08-09T06:36:38.350Z,2060.00
2018-08-09T06:37:38.282Z,2032.00
2018-08-09T06:38:38.207Z,2056.00
2018-08-09T06:39:38.139Z,2204.00
2018-08-09T06:40:38.067Z,2156.00
2018-08-09T06:41:37.997Z,2100.00
2018-08-09T06:42:37.926Z,2060.00
2018-08-09T06:43:37.858Z,2024.00
2018-08-09T06:44:37.784Z,2012.00
2018-08-09T06:45:37.714Z,2000.00
2018-08-09T06:46:37.643Z,2004.00
2018-08-09T06:47:37.642Z,2020.00
2018-08-09T06:48:37.504Z,2032.00
2018-08-09T06:49:37.433Z,2044.00
2018-08-09T06:50:37.363Z,2048.00
2018-08-09T06:51:37.293Z,2048.00
2018-08-09T06:52:37.223Z,2048.00
2018-08-09T06:53:37.153Z,2048.00
2018-08-09T06:54:37.082Z,2060.00
2018-08-09T06:55:37.013Z,2068.00
2018-08-09T06:56:36.943Z,2088.00
2018-08-09T06:57:36.873Z,2124.00
2018-08-09T06:58:36.801Z,2132.00
2018-08-09T06:59:36.731Z,2144.00
2018-08-09T07:00:36.661Z,2148.00
2018-08-09T07:01:36.590Z,2152.00
2018-08-09T07:02:36.521Z,2160.00
2018-08-09T07:03:36.451Z,2172.00
2018-08-09T07:04:36.383Z,2184.00
2018-08-09T07:05:36.312Z,2204.00
2018-08-09T07:06:36.241Z,2212.00
2018-08-09T07:07:36.172Z,2220.00
2018-08-09T07:08:36.100Z,2224.00
2018-08-09T07:09:36.029Z,2232.00
2018-08-09T07:10:35.959Z,2240.00
2018-08-09T07:11:35.890Z,2256.00
2018-08-09T07:12:35.820Z,2268.00
2018-08-09T07:13:35.749Z,2284.00
2018-08-09T07:14:35.680Z,2300.00
2018-08-09T07:15:35.609Z,2316.00
2018-08-09T07:16:35.540Z,2324.00
2018-08-09T07:17:35.469Z,2316.00
2018-08-09T07:18:35.399Z,2312.00
2018-08-09T07:19:35.329Z,2312.00
2018-08-09T07:20:35.259Z,2320.00
2018-08-09T07:21:35.188Z,2336.00
2018-08-09T07:22:35.119Z,2360.00
2018-08-09T07:23:35.052Z,2388.00
2018-08-09T07:24:34.980Z,2420.00
2018-08-09T07:25:34.910Z,2444.00
2018-08-09T07:26:34.908Z,2468.00
2018-08-09T07:27:34.770Z,2488.00
2018-08-09T07:28:34.701Z,2516.00
2018-08-09T07:29:35.432Z,2536.00
2018-08-09T07:30:34.561Z,2540.00
2018-08-09T07:31:34.492Z,2528.00
2018-08-09T07:32:34.424Z,2516.00
2018-08-09T07:33:34.352Z,2508.00
2018-08-09T07:34:34.282Z,2524.00
2018-08-09T07:35:34.213Z,2552.00
2018-08-09T07:36:34.209Z,2508.00
2018-08-09T07:37:34.076Z,2556.00
2018-08-09T07:38:34.006Z,2304.00
2018-08-09T07:39:34.041Z,2408.00
2018-08-09T07:40:33.869Z,2248.00
2018-08-09T07:41:33.798Z,2288.00
2018-08-09T07:42:33.729Z,2364.00
2018-08-09T07:43:33.660Z,2508.00
2018-08-09T07:44:33.593Z,2592.00
2018-08-09T07:45:33.524Z,2596.00
2018-08-09T07:46:33.488Z,2436.00
2018-08-09T07:47:33.388Z,2600.00
2018-08-09T07:48:33.384Z,2604.00
2018-08-09T07:49:33.247Z,2656.00
2018-08-09T07:50:33.177Z,2640.00
2018-08-09T07:51:33.114Z,2636.00
2018-08-09T07:52:33.042Z,2600.00
2018-08-09T07:53:32.972Z,2576.00
2018-08-09T07:54:32.905Z,2608.00
2018-08-09T07:55:32.836Z,2616.00
2018-08-09T07:56:32.766Z,2636.00
2018-08-09T07:57:32.698Z,2668.00
2018-08-09T07:58:32.632Z,2652.00
2018-08-09T07:59:32.565Z,2808.00
2018-08-09T08:00:32.492Z,2876.00
2018-08-09T08:01:32.424Z,2904.00
2018-08-09T08:02:32.356Z,2868.00
2018-08-09T08:03:32.291Z,2936.00
2018-08-09T08:04:32.220Z,2956.00
2018-08-09T08:05:32.150Z,2960.00
2018-08-09T08:06:32.083Z,2980.00
2018-08-09T08:07:32.014Z,3008.00
2018-08-09T08:08:32.005Z,2984.00
2018-08-09T08:09:31.878Z,2972.00
2018-08-09T08:10:31.809Z,2944.00
2018-08-09T08:11:31.743Z,2960.00
2018-08-09T08:12:31.673Z,3032.00
2018-08-09T08:13:31.606Z,2988.00
2018-08-09T08:14:31.539Z,2968.00
2018-08-09T08:15:31.470Z,2904.00
2018-08-09T08:16:31.403Z,2888.00
2018-08-09T08:17:31.334Z,2872.00
2018-08-09T08:18:31.267Z,2880.00
2018-08-09T08:19:31.198Z,2880.00
2018-08-09T08:20:31.131Z,2948.00
2018-08-09T08:21:31.064Z,3156.00
2018-08-09T08:22:30.995Z,3304.00
2018-08-09T08:23:30.928Z,3488.00
2018-08-09T08:24:30.861Z,3548.00
2018-08-09T08:25:30.792Z,3880.00
2018-08-09T08:26:30.725Z,4140.00
2018-08-09T08:27:30.658Z,4592.00
2018-08-09T08:28:30.590Z,5136.00
2018-08-09T08:29:30.523Z,5724.00
2018-08-09T08:30:30.459Z,6428.00
2018-08-09T08:31:30.389Z,7164.00
2018-08-09T08:32:30.321Z,7444.00
2018-08-09T08:33:30.254Z,7888.00
2018-08-09T08:34:30.228Z,8368.00
2018-08-09T08:35:30.121Z,8716.00
2018-08-09T08:36:30.058Z,8476.00
2018-08-09T08:37:29.988Z,8136.00
2018-08-09T08:38:29.921Z,7876.00
2018-08-09T08:39:29.855Z,7776.00
2018-08-09T08:40:29.787Z,7656.00
2018-08-09T08:41:29.791Z,7556.00
2018-08-09T08:42:29.695Z,7556.00
2018-08-09T08:43:29.588Z,7744.00
2018-08-09T08:44:29.522Z,7996.00
2018-08-09T08:45:29.454Z,8204.00
2018-08-09T08:46:29.388Z,8448.00
2018-08-09T08:47:29.366Z,8632.00
2018-08-09T08:48:29.258Z,8728.00
2018-08-09T08:49:29.189Z,8696.00
2018-08-09T08:50:29.121Z,8560.00
2018-08-09T08:51:29.054Z,8464.00
2018-08-09T08:52:28.989Z,8616.00
2018-08-09T08:53:28.923Z,8792.00
2018-08-09T08:54:28.856Z,8864.00
2018-08-09T08:55:28.790Z,8856.00
2018-08-09T08:56:28.724Z,8688.00
2018-08-09T08:57:28.656Z,8864.00
2018-08-09T08:58:28.591Z,8972.00
2018-08-09T08:59:28.524Z,9140.00
2018-08-09T09:00:28.459Z,9268.00
2018-08-09T09:01:28.392Z,9492.00
2018-08-09T09:02:28.326Z,9804.00
2018-08-09T09:03:28.260Z,10024.00
2018-08-09T09:04:28.287Z,9956.00
2018-08-09T09:05:28.137Z,9776.00
2018-08-09T09:06:28.061Z,9428.00
2018-08-09T09:07:27.995Z,9444.00
2018-08-09T09:08:27.937Z,9620.00
2018-08-09T09:09:27.863Z,9640.00
2018-08-09T09:10:27.796Z,9844.00
2018-08-09T09:11:27.732Z,9972.00
2018-08-09T09:12:27.666Z,9732.00
2018-08-09T09:13:27.598Z,9268.00
2018-08-09T09:14:27.533Z,8868.00
2018-08-09T09:15:27.467Z,8760.00
2018-08-09T09:16:27.404Z,8612.00
2018-08-09T09:17:27.337Z,8280.00
2018-08-09T09:18:27.271Z,7580.00
2018-08-09T09:19:27.210Z,6792.00
2018-08-09T09:20:27.140Z,6288.00
2018-08-09T09:21:27.075Z,6192.00
2018-08-09T09:22:27.009Z,6072.00
2018-08-09T09:23:26.943Z,6096.00
2018-08-09T09:24:26.878Z,6340.00
2018-08-09T09:25:26.811Z,6680.00
2018-08-09T09:26:26.745Z,7020.00
2018-08-09T09:27:26.684Z,7264.00
2018-08-09T09:28:26.616Z,7496.00
2018-08-09T09:29:26.549Z,7500.00
2018-08-09T09:30:26.483Z,7936.00
2018-08-09T09:31:26.418Z,8736.00
2018-08-09T09:32:26.351Z,8996.00
2018-08-09T09:33:26.285Z,9064.00
2018-08-09T09:34:26.220Z,9236.00
2018-08-09T09:35:26.155Z,9196.00
2018-08-09T09:36:26.088Z,9000.00
2018-08-09T09:37:26.023Z,8792.00
2018-08-09T09:38:25.957Z,9132.00
2018-08-09T09:39:25.897Z,9304.00
2018-08-09T09:40:25.826Z,9068.00
2018-08-09T09:41:25.809Z,8644.00
2018-08-09T09:42:25.695Z,8372.00
2018-08-09T09:43:25.632Z,7868.00
2018-08-09T09:44:25.563Z,7104.00
2018-08-09T09:45:25.497Z,6536.00
2018-08-09T09:46:25.434Z,5888.00
2018-08-09T09:47:25.368Z,5168.00
2018-08-09T09:48:25.301Z,4736.00
2018-08-09T09:49:25.235Z,4592.00
2018-08-09T09:50:25.170Z,4520.00
2018-08-09T09:51:25.105Z,4736.00
2018-08-09T09:52:25.039Z,5140.00
2018-08-09T09:53:24.972Z,5164.00
2018-08-09T09:54:24.932Z,5412.00
2018-08-09T09:55:24.842Z,5408.00
2018-08-09T09:56:24.777Z,5112.00
2018-08-09T09:57:24.709Z,5484.00
2018-08-09T09:58:24.648Z,5544.00
2018-08-09T09:59:24.579Z,5948.00
2018-08-09T10:00:24.514Z,5376.00
2018-08-09T10:01:24.447Z,5272.00
2018-08-09T10:02:24.382Z,5324.00
2018-08-09T10:03:24.317Z,5432.00
2018-08-09T10:04:24.250Z,5340.00
2018-08-09T10:05:24.187Z,5304.00
2018-08-09T10:06:24.120Z,5668.00
2018-08-09T10:07:24.107Z,5572.00
2018-08-09T10:08:23.987Z,5324.00
2018-08-09T10:09:23.925Z,5576.00
2018-08-09T10:10:23.882Z,5456.00
2018-08-09T10:11:23.792Z,5624.00
2018-08-09T10:12:23.725Z,5484.00
2018-08-09T10:13:23.660Z,5348.00
2018-08-09T10:14:23.598Z,5272.00
2018-08-09T10:15:23.529Z,5460.00
2018-08-09T10:16:23.467Z,5548.00
2018-08-09T10:17:23.398Z,5536.00
2018-08-09T10:18:23.332Z,5692.00
2018-08-09T10:19:23.271Z,5668.00
2018-08-09T10:20:23.201Z,5684.00
2018-08-09T10:21:23.135Z,5908.00
2018-08-09T10:22:23.069Z,5948.00
2018-08-09T10:23:23.004Z,6332.00
2018-08-09T10:24:22.939Z,6352.00
2018-08-09T10:25:22.874Z,6904.00
2018-08-09T10:26:22.807Z,6924.00
2018-08-09T10:27:22.741Z,6604.00
2018-08-09T10:28:22.677Z,6940.00
2018-08-09T10:29:22.613Z,5988.00
2018-08-09T10:30:22.545Z,5336.00
2018-08-09T10:31:22.479Z,5360.00
2018-08-09T10:32:22.418Z,5632.00
2018-08-09T10:33:22.348Z,5648.00
2018-08-09T10:34:22.284Z,5516.00
2018-08-09T10:35:22.253Z,5528.00
2018-08-09T10:36:22.153Z,5612.00
2018-08-09T10:37:22.086Z,5760.00
2018-08-09T10:38:22.022Z,6196.00
2018-08-09T10:39:21.959Z,5944.00
2018-08-09T10:40:21.890Z,6136.00
2018-08-09T10:41:21.825Z,6356.00
2018-08-09T10:42:21.759Z,6416.00
2018-08-09T10:43:21.693Z,6380.00
2018-08-09T10:44:21.630Z,6660.00
2018-08-09T10:45:21.566Z,7008.00
2018-08-09T10:46:21.498Z,7252.00
2018-08-09T10:47:21.433Z,7420.00
2018-08-09T10:48:21.368Z,6644.00
2018-08-09T10:49:21.302Z,6572.00
2018-08-09T10:50:21.238Z,6836.00
2018-08-09T10:51:21.171Z,6996.00
2018-08-09T10:52:21.107Z,7076.00
2018-08-09T10:53:21.040Z,6832.00
2018-08-09T10:54:20.975Z,6068.00
2018-08-09T10:55:20.910Z,6988.00
2018-08-09T10:56:20.846Z,7412.00
2018-08-09T10:57:20.782Z,11572.00
2018-08-09T10:58:20.715Z,7712.00
2018-08-09T10:59:20.650Z,10196.00
2018-08-09T11:00:20.585Z,8748.00
2018-08-09T11:01:20.519Z,7684.00
2018-08-09T11:02:20.454Z,6500.00
2018-08-09T11:03:20.391Z,6320.00
2018-08-09T11:04:20.324Z,7504.00
2018-08-09T11:05:20.258Z,6520.00
2018-08-09T11:06:20.195Z,14184.00
2018-08-09T11:07:20.130Z,19360.00
2018-08-09T11:08:20.066Z,12376.00
2018-08-09T11:09:20.002Z,9992.00
2018-08-09T11:10:19.935Z,18912.00
2018-08-09T11:11:19.871Z,8696.00
2018-08-09T11:12:19.807Z,11496.00
2018-08-09T11:13:19.741Z,16328.00
2018-08-09T11:14:19.676Z,7768.00
2018-08-09T11:15:19.613Z,7496.00
2018-08-09T11:16:19.549Z,7872.00
2018-08-09T11:17:19.487Z,10760.00
2018-08-09T11:18:19.420Z,10940.00
2018-08-09T11:19:19.358Z,9568.00
2018-08-09T11:20:19.292Z,32768.00
2018-08-09T11:21:19.229Z,7484.00
2018-08-09T11:22:19.163Z,8700.00
2018-08-09T11:23:19.101Z,8528.00
2018-08-09T11:24:19.037Z,7804.00
2018-08-09T11:25:18.972Z,11836.00
2018-08-09T11:26:18.908Z,7196.00
2018-08-09T11:27:18.845Z,12908.00
2018-08-09T11:28:18.782Z,21152.00
2018-08-09T11:29:18.720Z,10132.00
2018-08-09T11:30:18.655Z,24192.00
2018-08-09T11:31:18.601Z,10252.00
2018-08-09T11:32:18.526Z,13988.00
2018-08-09T11:33:18.463Z,30368.00
2018-08-09T11:34:18.399Z,49152.00
2018-08-09T11:35:18.337Z,67296.00
2018-08-09T11:36:18.272Z,27712.00
2018-08-09T11:37:18.209Z,36000.00
2018-08-09T11:38:18.145Z,59712.00
2018-08-09T11:39:18.083Z,53088.00
2018-08-09T11:40:18.021Z,63072.00
2018-08-09T11:41:17.959Z,32512.00
2018-08-09T11:42:17.895Z,26304.00
2018-08-09T11:43:17.833Z,50496.00
2018-08-09T11:44:17.770Z,83488.00
2018-08-09T11:45:17.708Z,80544.00
2018-08-09T11:46:17.646Z,45824.00
2018-08-09T11:47:17.585Z,70464.00
2018-08-09T11:48:17.522Z,75936.00
2018-08-09T11:49:17.476Z,94784.00
2018-08-09T11:50:17.401Z,20992.00
2018-08-09T11:51:17.351Z,91584.00
2018-08-09T11:52:17.284Z,95648.00
2018-08-09T11:53:17.222Z,94240.00
2018-08-09T11:54:17.164Z,99200.00
2018-08-09T11:55:17.104Z,101440.00
2018-08-09T11:56:17.119Z,96128.00
2018-08-09T11:57:17.005Z,87840.00
2018-08-09T11:59:16.874Z,82368.00
2018-08-09T12:00:16.815Z,84896.00
2018-08-09T12:01:16.756Z,87744.00
2018-08-09T12:02:16.699Z,87872.00
2018-08-09T12:03:16.681Z,90816.00
2018-08-09T12:04:16.586Z,10304.00
2018-08-09T12:05:16.528Z,9516.00
2018-08-09T12:06:16.473Z,14400.00
2018-08-09T12:07:16.423Z,84128.00
2018-08-09T12:08:16.359Z,86016.00
2018-08-09T12:09:16.301Z,86976.00
2018-08-09T12:10:16.255Z,87296.00
2018-08-09T12:11:16.187Z,95168.00
2018-08-09T12:12:16.134Z,101376.00
2018-08-09T12:13:16.074Z,97504.00
2018-08-09T12:14:16.017Z,94112.00
2018-08-09T12:15:15.998Z,90752.00
2018-08-09T12:16:15.905Z,92736.00
2018-08-09T12:17:15.847Z,98624.00
2018-08-09T12:18:15.792Z,98368.00
2018-08-09T12:19:15.738Z,95584.00
2018-08-09T12:20:15.682Z,100096.00
2018-08-09T12:21:15.626Z,95808.00
2018-08-09T12:22:15.573Z,88032.00
2018-08-09T12:23:15.517Z,91072.00
2018-08-09T12:24:15.471Z,94368.00
2018-08-09T12:25:15.408Z,92864.00
2018-08-09T12:26:15.352Z,88928.00
2018-08-09T12:27:15.301Z,81152.00